Time;durP1;ratioP1;P1;durP2;ratioP2;P2;SDS_P1;SDS_P2;PMS_P1;PMS_P2;Temp;Humidity;BMP_temperature;BMP_pressure;BME280_temperature;BME280_humidity;BME280_pressure;Samples;Min_cycle;Max_cycle;Signal;HPM_P1;HPM_P2
2022/04/26 03:36:28;;;;;;;105.72;43.95;;;;;;;9.68;100.00;100353.31;8387483;28;20477;-62
2022/04/26 03:39:48;;;;;;;102.10;43.95;;;;;;;9.66;100.00;100344.50;8401599;28;20054;-62
2022/04/26 03:43:48;;;;;;;97.20;43.35;;;;;;;9.67;100.00;100351.63;8420941;28;20047;-62
2022/04/26 03:47:49;;;;;;;108.65;42.90;;;;;;;9.72;100.00;100358.31;8389024;28;20037;-62
2022/04/26 03:51:52;;;;;;;98.82;43.55;;;;;;;9.64;100.00;100365.41;8412626;28;20048;-62
2022/04/26 03:55:52;;;;;;;104.97;44.20;;;;;;;9.73;100.00;100367.28;8396613;28;20066;-62
2022/04/26 03:59:53;;;;;;;103.28;42.38;;;;;;;9.80;100.00;100363.84;8419707;28;20064;-62
2022/04/26 04:03:53;;;;;;;106.85;45.42;;;;;;;9.78;100.00;100367.69;8396186;28;20131;-62
2022/04/26 04:07:54;;;;;;;111.38;44.28;;;;;;;9.81;100.00;100362.00;8400260;28;20056;-62
2022/04/26 04:11:54;;;;;;;106.20;43.97;;;;;;;9.78;100.00;100364.97;8396157;28;20075;-62
2022/04/26 04:15:55;;;;;;;106.30;42.85;;;;;;;9.76;100.00;100367.00;8373591;28;20439;-62
2022/04/26 04:19:55;;;;;;;103.45;43.15;;;;;;;9.75;100.00;100365.25;8391383;28;20552;-62
2022/04/26 04:23:56;;;;;;;105.45;43.05;;;;;;;9.80;100.00;100368.41;8388129;28;20118;-62
2022/04/26 04:27:56;;;;;;;110.28;45.22;;;;;;;9.81;100.00;100375.50;8384504;28;20036;-62
2022/04/26 04:31:57;;;;;;;114.45;43.33;;;;;;;9.85;100.00;100377.78;8385943;28;20182;-62
2022/04/26 04:35:57;;;;;;;103.18;42.97;;;;;;;9.88;100.00;100377.50;8383894;28;20101;-62
2022/04/26 04:39:58;;;;;;;116.63;45.17;;;;;;;9.89;100.00;100378.38;8385608;28;20052;-62
2022/04/26 04:43:58;;;;;;;108.15;44.22;;;;;;;9.90;100.00;100374.66;8418218;28;20518;-62
2022/04/26 04:47:58;;;;;;;110.90;45.72;;;;;;;9.95;100.00;100383.22;8408009;28;20098;-62
2022/04/26 04:51:59;;;;;;;107.85;43.10;;;;;;;9.92;100.00;100388.91;8391349;28;20040;-62
2022/04/26 04:55:59;;;;;;;101.53;43.33;;;;;;;9.91;100.00;100401.53;8386379;28;20537;-62
2022/04/26 05:00:00;;;;;;;102.78;43.78;;;;;;;9.95;100.00;100411.06;8392157;28;20036;-62
2022/04/26 05:04:01;;;;;;;103.90;42.05;;;;;;;9.96;100.00;100401.13;8386895;28;20127;-62
2022/04/26 05:08:01;;;;;;;99.50;41.45;;;;;;;9.94;100.00;100408.50;8390356;28;20048;-62
2022/04/26 05:12:02;;;;;;;95.00;41.65;;;;;;;9.93;100.00;100417.59;8386319;28;20044;-62
2022/04/26 05:16:03;;;;;;;105.28;43.33;;;;;;;9.95;100.00;100421.03;8401832;28;20036;-62
2022/04/26 05:20:05;;;;;;;94.85;39.53;;;;;;;9.90;100.00;100423.28;8399360;28;20504;-62
2022/04/26 05:25:06;;;;;;;81.57;37.08;;;;;;;9.87;100.00;100418.16;8385836;28;20550;-62
2022/04/26 05:28:26;;;;;;;91.75;38.13;;;;;;;10.00;100.00;100425.00;8377210;28;20067;-62
2022/04/26 05:32:28;;;;;;;89.65;40.63;;;;;;;9.93;100.00;100423.00;8395755;28;20048;-63
2022/04/26 05:36:28;;;;;;;101.93;44.13;;;;;;;9.90;100.00;100421.44;8409699;28;20432;-62
2022/04/26 05:40:29;;;;;;;97.63;44.83;;;;;;;9.93;100.00;100433.81;8421213;28;20032;-62
2022/04/26 05:44:29;;;;;;;109.57;45.38;;;;;;;9.92;100.00;100427.53;8421149;28;20036;-62
2022/04/26 05:48:29;;;;;;;112.97;52.05;;;;;;;9.80;100.00;100427.81;8421234;28;20135;-63
2022/04/26 05:52:30;;;;;;;123.53;54.92;;;;;;;9.87;100.00;100434.34;8398051;28;20036;-62
2022/04/26 05:56:30;;;;;;;122.97;55.23;;;;;;;9.76;100.00;100431.78;8388879;28;20105;-62
2022/04/26 06:00:31;;;;;;;133.18;56.10;;;;;;;9.59;100.00;100429.72;8390931;28;20831;-63
2022/04/26 06:04:31;;;;;;;130.77;55.30;;;;;;;9.68;100.00;100424.38;8391253;28;20051;-62
2022/04/26 06:08:32;;;;;;;118.70;55.00;;;;;;;9.50;100.00;100425.13;8391276;28;20045;-63
2022/04/26 06:12:34;;;;;;;133.65;56.47;;;;;;;9.52;100.00;100439.34;8401113;28;20415;-62
2022/04/26 06:16:35;;;;;;;123.20;55.38;;;;;;;9.43;100.00;100440.16;8421483;28;20145;-62
2022/04/26 06:20:35;;;;;;;131.48;59.03;;;;;;;9.40;100.00;100451.22;8421654;28;20153;-62
2022/04/26 06:24:35;;;;;;;106.65;50.63;;;;;;;9.19;100.00;100455.81;8407960;28;20336;-63
2022/04/26 06:28:36;;;;;;;97.25;47.00;;;;;;;9.14;100.00;100471.50;8389406;28;20546;-62
2022/04/26 06:32:36;;;;;;;86.38;42.83;;;;;;;9.05;100.00;100462.38;8389492;28;20120;-62
2022/04/26 06:36:37;;;;;;;81.30;40.92;;;;;;;9.00;100.00;100480.78;8389134;28;20117;-62
2022/04/26 06:40:37;;;;;;;72.70;38.65;;;;;;;8.95;100.00;100484.88;8390295;28;20082;-62
2022/04/26 06:44:37;;;;;;;80.28;38.67;;;;;;;8.87;100.00;100484.66;8390428;28;20150;-62
2022/04/26 06:48:38;;;;;;;79.28;38.65;;;;;;;8.95;100.00;100488.44;8390094;28;20485;-62
2022/04/26 06:52:38;;;;;;;92.68;44.95;;;;;;;8.94;100.00;100496.66;8416669;28;20040;-62
2022/04/26 06:56:45;;;;;;;92.50;45.38;;;;;;;8.97;100.00;100496.41;8389920;28;20035;-62
2022/04/26 07:00:46;;;;;;;98.55;47.95;;;;;;;8.94;100.00;100502.06;8384493;28;20059;-63
2022/04/26 07:04:46;;;;;;;107.53;52.03;;;;;;;8.92;100.00;100498.63;8381674;28;20035;-63
2022/04/26 07:08:48;;;;;;;118.00;55.17;;;;;;;8.96;100.00;100500.06;8388463;28;20397;-63
2022/04/26 07:12:49;;;;;;;118.65;55.38;;;;;;;8.97;100.00;100502.63;8389191;28;20105;-63
2022/04/26 07:16:49;;;;;;;120.50;54.13;;;;;;;8.97;100.00;100494.53;8384946;28;20488;-63
2022/04/26 07:20:51;;;;;;;122.63;52.05;;;;;;;8.95;100.00;100509.16;8403277;28;20040;-63
2022/04/26 07:24:52;;;;;;;126.20;55.10;;;;;;;9.01;100.00;100514.00;8403765;28;20043;-62
2022/04/26 07:28:53;;;;;;;145.88;54.25;;;;;;;9.05;100.00;100510.94;8389278;28;20041;-62
2022/04/26 07:34:25;;;;;;;133.75;54.80;;;;;;;9.04;100.00;100521.84;8388776;28;20064;-62
2022/04/26 07:37:13;;;;;;;138.18;54.83;;;;;;;9.01;100.00;100522.97;8384428;28;20036;-63
2022/04/26 07:41:14;;;;;;;138.48;53.55;;;;;;;8.97;100.00;100529.59;8386929;28;20115;-62
2022/04/26 07:45:16;;;;;;;134.88;55.80;;;;;;;9.02;100.00;100521.97;8388216;28;20154;-63
2022/04/26 07:49:17;;;;;;;144.75;58.83;;;;;;;9.11;100.00;100536.50;8382097;28;20040;-62
2022/04/26 07:53:18;;;;;;;137.55;56.42;;;;;;;9.20;100.00;100533.03;8415668;28;20068;-62
2022/04/26 07:57:18;;;;;;;144.77;60.17;;;;;;;9.36;100.00;100541.50;8386521;28;20515;-62
2022/04/26 08:01:18;;;;;;;142.13;55.45;;;;;;;9.35;100.00;100545.19;8388223;28;20036;-62
2022/04/26 08:05:19;;;;;;;143.43;62.40;;;;;;;9.39;100.00;100546.63;8387322;28;20032;-62
2022/04/26 08:09:19;;;;;;;155.65;62.53;;;;;;;9.53;100.00;100549.00;8388368;28;20497;-62
2022/04/26 08:13:19;;;;;;;131.18;54.65;;;;;;;9.57;100.00;100545.91;8386406;28;20041;-62
2022/04/26 08:17:20;;;;;;;142.93;60.45;;;;;;;9.67;100.00;100557.59;8386572;28;20044;-62
2022/04/26 08:21:21;;;;;;;122.63;59.17;;;;;;;9.59;100.00;100559.25;8404843;28;20037;-62
2022/04/26 08:29:42;;;;;;;151.93;67.60;;;;;;;9.58;100.00;100579.16;8394336;28;20501;-63
2022/04/26 08:33:42;;;;;;;147.63;67.23;;;;;;;9.57;100.00;100590.91;8394697;28;20480;-63
2022/04/26 08:37:43;;;;;;;149.50;68.75;;;;;;;9.56;100.00;100591.91;8393158;28;20275;-63
2022/04/26 08:41:43;;;;;;;150.30;65.38;;;;;;;9.52;100.00;100596.72;8392577;28;20083;-63
2022/04/26 08:45:46;;;;;;;156.20;67.00;;;;;;;9.56;100.00;100608.13;8393592;28;20051;-63
2022/04/26 08:51:18;;;;;;;159.18;68.65;;;;;;;9.49;100.00;100617.72;8403047;28;20098;-63
2022/04/26 08:54:07;;;;;;;167.70;71.55;;;;;;;9.45;100.00;100616.25;8413623;28;20032;-63
2022/04/26 08:58:10;;;;;;;158.65;68.78;;;;;;;9.49;100.00;100629.38;8391232;28;20048;-63
2022/04/26 09:02:22;;;;;;;162.25;69.28;;;;;;;9.58;100.00;100633.13;8393178;28;20041;-62
2022/04/26 09:06:36;;;;;;;170.60;74.78;;;;;;;9.57;100.00;100636.81;8393165;28;20089;-63
2022/04/26 09:10:46;;;;;;;168.15;72.70;;;;;;;9.60;100.00;100641.94;8392154;28;20412;-63
2022/04/26 09:14:48;;;;;;;168.75;73.93;;;;;;;9.63;100.00;100657.88;8392938;28;20036;-62
2022/04/26 09:18:52;;;;;;;164.07;69.80;;;;;;;9.66;100.00;100663.88;8391949;28;20044;-64
2022/04/26 09:22:59;;;;;;;160.70;69.53;;;;;;;9.67;100.00;100670.16;8420019;28;20079;-63
2022/04/26 09:27:15;;;;;;;159.93;67.53;;;;;;;9.68;100.00;100677.25;8392997;28;20055;-63
2022/04/26 09:31:22;;;;;;;167.52;72.72;;;;;;;9.64;100.00;100665.00;8391824;28;20052;-63
2022/04/26 09:35:24;;;;;;;161.23;68.78;;;;;;;9.64;100.00;100660.44;8391903;28;20037;-63
2022/04/26 09:39:25;;;;;;;175.82;72.03;;;;;;;9.80;100.00;100662.69;8391434;28;20039;-63
2022/04/26 09:43:26;;;;;;;166.05;72.38;;;;;;;9.96;100.00;100665.78;8390388;28;20119;-63
2022/04/26 09:47:43;;;;;;;159.85;69.13;;;;;;;10.07;100.00;100679.25;8390820;28;20045;-63
2022/04/26 09:51:46;;;;;;;148.95;67.22;;;;;;;10.18;100.00;100671.03;8415981;28;20044;-63
2022/04/26 09:55:47;;;;;;;150.50;68.47;;;;;;;10.30;100.00;100683.47;8399529;28;20118;-63
2022/04/26 09:59:48;;;;;;;143.90;64.32;;;;;;;10.20;100.00;100690.69;8391846;28;20033;-63
2022/04/26 10:03:52;;;;;;;152.07;67.60;;;;;;;10.34;100.00;100697.59;8390969;28;20040;-63
2022/04/26 10:07:54;;;;;;;153.73;66.97;;;;;;;10.19;100.00;100699.78;8391167;28;20464;-63
2022/04/26 10:11:59;;;;;;;147.52;68.03;;;;;;;10.31;100.00;100704.09;8390210;28;20047;-63
2022/04/26 10:16:04;;;;;;;138.93;64.75;;;;;;;10.36;100.00;100706.41;8379881;28;20037;-63
2022/04/26 10:20:05;;;;;;;140.82;65.65;;;;;;;10.64;100.00;100703.81;8396151;28;20028;-63
2022/04/26 10:28:24;;;;;;;105.35;51.38;;;;;;;10.69;100.00;100715.09;8483587;27;20120;-63
2022/04/26 10:32:32;;;;;;;87.53;44.95;;;;;;;10.85;100.00;100717.28;8444346;28;20046;-64
2022/04/26 10:36:33;;;;;;;82.13;43.08;;;;;;;10.87;100.00;100713.47;8448777;28;20108;-61
2022/04/26 10:41:09;;;;;;;78.50;42.10;;;;;;;11.10;100.00;100714.94;8448931;28;20497;-61
2022/04/26 10:45:11;;;;;;;81.82;43.22;;;;;;;11.15;100.00;100720.78;8396291;28;20064;-62
2022/04/26 10:53:45;;;;;;;84.70;46.78;;;;;;;11.25;100.00;100724.34;8459564;27;20208;-61
2022/04/26 10:57:48;;;;;;;97.47;53.20;;;;;;;11.24;100.00;100721.78;8448182;28;20035;-62
2022/04/26 11:01:49;;;;;;;105.55;55.92;;;;;;;11.72;100.00;100728.97;8448504;28;20092;-62
2022/04/26 11:05:49;;;;;;;99.85;53.78;;;;;;;11.95;100.00;100726.00;8448386;28;20036;-62
2022/04/26 11:09:50;;;;;;;113.85;62.08;;;;;;;12.10;99.07;100732.69;8447406;28;20039;-62
2022/04/26 11:14:02;;;;;;;114.32;62.65;;;;;;;12.29;99.55;100729.94;8427834;28;20032;-62
2022/04/26 11:18:03;;;;;;;121.68;68.35;;;;;;;12.02;96.57;100730.69;8415182;28;20459;-62
2022/04/26 11:22:05;;;;;;;124.97;67.40;;;;;;;12.02;96.77;100736.13;8433193;28;20039;-62
2022/04/26 11:30:31;;;;;;;122.90;65.38;;;;;;;12.09;97.53;100748.06;8414658;28;20476;-62
2022/04/26 11:34:47;;;;;;;114.85;61.90;;;;;;;12.07;96.01;100749.25;8404005;27;20065;-62
2022/04/26 11:38:57;;;;;;;108.47;62.97;;;;;;;12.41;95.68;100755.88;8445898;28;20038;-61
2022/04/26 11:42:58;;;;;;;104.65;59.17;;;;;;;12.43;95.26;100759.28;8422623;28;20044;-62
2022/04/26 11:46:59;;;;;;;94.65;53.17;;;;;;;12.57;96.55;100753.41;8390732;28;20371;-62
2022/04/26 11:51:01;;;;;;;79.35;46.97;;;;;;;13.04;94.72;100752.38;8403953;28;20052;-62
2022/04/26 11:55:01;;;;;;;79.45;47.45;;;;;;;13.17;90.76;100755.56;8403905;28;20587;-62
2022/04/26 11:59:02;;;;;;;75.60;46.10;;;;;;;13.10;92.88;100762.63;8407941;28;20147;-62
2022/04/26 12:03:05;;;;;;;79.95;48.63;;;;;;;12.91;93.26;100762.69;8397273;28;20044;-62
2022/04/26 12:07:06;;;;;;;80.47;45.73;;;;;;;12.85;93.37;100768.72;8379121;28;20036;-62
2022/04/26 12:11:17;;;;;;;82.20;46.65;;;;;;;13.02;91.20;100765.25;8378982;28;20039;-62
2022/04/26 12:15:27;;;;;;;75.22;45.17;;;;;;;13.31;90.14;100760.50;8389589;28;20510;-62
2022/04/26 12:19:36;;;;;;;69.15;41.75;;;;;;;13.83;88.69;100746.97;8400141;28;20121;-62
2022/04/26 12:23:36;;;;;;;60.08;40.63;;;;;;;14.43;86.06;100744.44;8385784;28;20096;-62
2022/04/26 12:27:37;;;;;;;61.47;37.38;;;;;;;14.53;84.96;100740.59;8393996;28;20032;-62
2022/04/26 12:31:44;;;;;;;54.30;35.65;;;;;;;14.21;87.11;100747.63;8393092;28;20040;-63
2022/04/26 12:35:57;;;;;;;50.17;32.47;;;;;;;14.63;85.92;100741.31;8391446;28;20089;-63
2022/04/26 12:40:04;;;;;;;42.08;28.17;;;;;;;15.70;83.99;100733.25;8386015;28;20036;-63
2022/04/26 12:44:07;;;;;;;36.78;24.10;;;;;;;16.26;83.65;100743.34;8393858;28;20072;-63
2022/04/26 12:52:32;;;;;;;39.42;26.17;;;;;;;15.80;82.72;100743.16;8396014;28;20139;-63
2022/04/26 12:56:36;;;;;;;42.28;28.40;;;;;;;16.26;83.10;100740.63;8392912;28;20032;-63
2022/04/26 13:00:40;;;;;;;40.53;27.90;;;;;;;16.32;79.42;100733.63;8392819;28;20032;-63
2022/04/26 13:04:40;;;;;;;47.70;29.58;;;;;;;16.33;80.56;100740.75;8389614;28;20040;-62
2022/04/26 13:08:44;;;;;;;41.53;29.30;;;;;;;15.32;78.90;100731.09;8393043;28;20040;-63
2022/04/26 13:12:46;;;;;;;46.22;30.17;;;;;;;15.47;80.99;100731.34;8387010;28;20781;-62
2022/04/26 13:16:46;;;;;;;46.22;29.42;;;;;;;15.81;82.17;100733.94;8391313;28;20033;-63
2022/04/26 13:20:47;;;;;;;41.88;29.15;;;;;;;16.02;83.31;100731.56;8407789;28;20036;-62
2022/04/26 13:24:47;;;;;;;46.70;29.92;;;;;;;16.16;76.15;100729.00;8374488;28;20500;-63
2022/04/26 13:28:48;;;;;;;35.72;25.50;;;;;;;15.47;75.75;100726.72;8373260;28;20044;-63
2022/04/26 13:32:49;;;;;;;37.03;26.02;;;;;;;15.24;76.70;100714.72;8381684;28;20556;-63
2022/04/26 13:36:49;;;;;;;38.80;24.42;;;;;;;14.87;77.39;100727.84;8379331;28;20436;-63
2022/04/26 13:40:52;;;;;;;40.63;27.77;;;;;;;14.76;76.44;100725.41;8381042;28;20133;-62
2022/04/26 13:44:52;;;;;;;40.17;27.52;;;;;;;15.08;76.14;100711.94;8380414;28;20047;-62
2022/04/26 13:48:53;;;;;;;35.88;25.27;;;;;;;15.80;76.40;100710.44;8395700;28;20552;-62
2022/04/26 13:52:53;;;;;;;35.63;25.08;;;;;;;16.42;73.43;100701.53;8383482;28;20048;-62
2022/04/26 13:56:54;;;;;;;31.15;22.58;;;;;;;16.63;69.86;100710.03;8377727;28;20049;-64
2022/04/26 14:00:55;;;;;;;31.25;21.75;;;;;;;16.28;70.75;100710.44;8377465;28;20044;-63
2022/04/26 14:04:55;;;;;;;29.00;20.08;;;;;;;16.19;71.76;100704.13;8379247;28;20067;-63
2022/04/26 14:08:56;;;;;;;34.00;21.02;;;;;;;15.90;70.96;100705.66;8380191;28;20060;-63
2022/04/26 14:12:57;;;;;;;27.95;20.77;;;;;;;15.77;72.44;100717.09;8380768;28;20046;-63
2022/04/26 14:21:51;;;;;;;30.42;17.77;;;;;;;15.86;72.72;100724.25;8391312;28;20066;-63
2022/04/26 14:25:39;;;;;;;25.20;17.85;;;;;;;15.27;75.50;100757.97;8377813;28;20105;-64
2022/04/26 14:29:40;;;;;;;13.93;10.20;;;;;;;14.37;76.26;100783.16;8379358;28;20063;-63
2022/04/26 14:33:40;;;;;;;5.40;3.45;;;;;;;12.69;79.06;100807.31;8379210;28;20308;-63
2022/04/26 14:37:41;;;;;;;4.55;3.65;;;;;;;12.19;82.31;100803.13;8379136;28;20068;-63
2022/04/26 14:41:42;;;;;;;4.28;3.05;;;;;;;12.10;84.35;100808.56;8379454;28;20039;-63
2022/04/26 14:45:44;;;;;;;6.45;3.33;;;;;;;11.83;86.08;100809.25;8360903;28;20032;-63
2022/04/26 14:49:46;;;;;;;6.68;4.90;;;;;;;12.22;86.42;100801.97;8380340;28;20071;-63
2022/04/26 14:53:46;;;;;;;9.20;4.85;;;;;;;12.35;86.30;100799.84;8372111;28;20054;-63
2022/04/26 14:57:47;;;;;;;8.02;5.20;;;;;;;12.12;87.45;100802.00;8373124;28;20052;-63
2022/04/26 15:01:49;;;;;;;7.22;4.70;;;;;;;11.93;87.68;100792.00;8387410;28;20146;-63
2022/04/26 15:05:49;;;;;;;6.68;4.60;;;;;;;12.37;88.95;100790.56;8377414;28;20037;-63
2022/04/26 15:09:53;;;;;;;4.80;3.78;;;;;;;12.58;87.21;100799.34;8379490;28;20089;-63
2022/04/26 15:18:13;;;;;;;7.53;5.78;;;;;;;12.96;85.58;100798.38;8371166;28;20527;-63
2022/04/26 15:22:14;;;;;;;6.78;5.93;;;;;;;13.14;85.99;100797.47;8383657;28;20463;-63
2022/04/26 15:26:14;;;;;;;10.15;6.82;;;;;;;12.84;86.05;100796.84;8376493;28;20157;-63
2022/04/26 15:30:15;;;;;;;9.07;7.25;;;;;;;13.01;85.73;100796.09;8376719;28;20098;-63
2022/04/26 15:34:15;;;;;;;9.55;7.43;;;;;;;13.06;86.13;100799.22;8378108;28;20340;-63
2022/04/26 15:38:16;;;;;;;12.35;9.02;;;;;;;13.15;85.91;100803.75;8378927;28;20054;-63
2022/04/26 15:42:18;;;;;;;12.68;7.90;;;;;;;13.14;85.29;100813.75;8385634;28;20079;-63
2022/04/26 15:46:18;;;;;;;12.32;8.07;;;;;;;13.01;86.15;100801.53;8384539;28;20373;-63
2022/04/26 15:50:18;;;;;;;12.32;9.52;;;;;;;12.96;88.90;100820.09;8393999;28;20471;-63
2022/04/26 15:54:19;;;;;;;11.15;8.63;;;;;;;12.88;90.55;100828.13;8383102;28;20040;-63
2022/04/26 15:58:19;;;;;;;15.30;11.00;;;;;;;12.75;91.45;100827.59;8381267;28;20111;-63
2022/04/26 16:02:23;;;;;;;12.77;10.00;;;;;;;12.64;91.54;100858.44;8383039;28;20036;-63
2022/04/26 16:06:24;;;;;;;6.70;6.03;;;;;;;12.19;91.89;100867.31;8378837;28;20036;-63
2022/04/26 16:20:37;;;;;;;8.63;6.85;;;;;;;11.83;96.45;100875.13;8370625;28;21060;-62
2022/04/26 16:23:25;;;;;;;13.18;8.93;;;;;;;11.70;99.08;100877.25;8377379;28;20046;-62
2022/04/26 16:27:27;;;;;;;11.65;8.90;;;;;;;11.59;100.00;100880.03;8375674;28;20499;-63
2022/04/26 16:31:28;;;;;;;9.77;8.25;;;;;;;11.41;100.00;100870.84;8377025;28;20044;-63
2022/04/26 16:35:29;;;;;;;15.65;9.52;;;;;;;11.38;100.00;100881.13;8369738;28;20315;-62
2022/04/26 16:39:29;;;;;;;14.63;10.98;;;;;;;11.16;100.00;100882.16;8375788;28;20168;-63
2022/04/26 16:43:29;;;;;;;12.43;10.45;;;;;;;11.12;100.00;100878.00;8375729;28;20495;-63
2022/04/26 16:47:30;;;;;;;13.18;11.27;;;;;;;10.91;100.00;100892.53;8375891;28;20531;-63
2022/04/26 16:51:32;;;;;;;19.38;13.85;;;;;;;10.76;100.00;100888.47;8377167;28;20048;-62
2022/04/26 16:55:33;;;;;;;13.80;11.30;;;;;;;10.72;100.00;100885.19;8375984;28;20033;-62
2022/04/26 16:59:33;;;;;;;21.80;13.57;;;;;;;10.84;100.00;100876.00;8378260;28;20131;-62
2022/04/26 17:03:34;;;;;;;18.80;12.65;;;;;;;10.71;100.00;100883.47;8378745;28;20044;-62
2022/04/26 17:07:34;;;;;;;22.73;14.60;;;;;;;10.79;100.00;100871.97;8378618;28;20295;-62
2022/04/26 17:11:43;;;;;;;23.38;16.05;;;;;;;10.86;100.00;100876.72;8378060;28;20123;-62
2022/04/26 17:15:43;;;;;;;23.10;17.63;;;;;;;10.97;100.00;100871.22;8378087;28;20037;-63
2022/04/26 17:19:44;;;;;;;31.92;21.48;;;;;;;11.06;100.00;100865.03;8381408;28;20047;-63
2022/04/26 17:23:44;;;;;;;29.05;20.08;;;;;;;11.17;100.00;100862.22;8377319;28;20032;-63
2022/04/26 17:27:49;;;;;;;28.93;19.90;;;;;;;11.18;100.00;100874.75;8375133;28;20040;-63
2022/04/26 17:31:52;;;;;;;31.55;21.55;;;;;;;11.25;100.00;100870.50;8373394;28;20271;-62
2022/04/26 17:35:52;;;;;;;30.67;21.42;;;;;;;11.24;100.00;100876.91;8374196;28;20118;-62
2022/04/26 17:39:53;;;;;;;33.92;22.20;;;;;;;11.14;100.00;100881.44;8375421;28;20041;-62
2022/04/26 17:43:53;;;;;;;38.38;23.75;;;;;;;11.18;100.00;100896.41;8376498;28;20029;-62
2022/04/26 17:47:54;;;;;;;35.08;22.83;;;;;;;11.12;100.00;100896.94;8374981;28;20089;-62
2022/04/26 17:51:55;;;;;;;36.03;21.63;;;;;;;11.10;100.00;100898.09;8376114;28;20037;-62
2022/04/26 17:56:56;;;;;;;44.35;23.95;;;;;;;11.14;100.00;100894.97;8371744;28;20040;-63
2022/04/26 18:00:16;;;;;;;40.70;23.27;;;;;;;11.04;100.00;100899.47;8372579;28;20364;-62
2022/04/26 18:04:16;;;;;;;34.83;22.40;;;;;;;11.07;100.00;100918.13;8373841;28;20448;-62
2022/04/26 18:08:17;;;;;;;31.88;20.20;;;;;;;11.02;100.00;100917.69;8373091;28;20045;-62
2022/04/26 18:12:17;;;;;;;34.90;21.40;;;;;;;10.98;100.00;100915.38;8373595;28;20570;-62
2022/04/26 18:16:20;;;;;;;34.08;22.38;;;;;;;11.07;100.00;100936.22;8372951;28;20049;-62
2022/04/26 18:20:20;;;;;;;31.75;21.52;;;;;;;11.17;100.00;100932.59;8373253;28;20406;-62
2022/04/26 18:24:21;;;;;;;44.97;25.67;;;;;;;11.22;100.00;100940.28;8371249;28;20178;-62
2022/04/26 18:28:22;;;;;;;31.73;20.88;;;;;;;11.19;100.00;100948.69;8375266;28;20033;-64
2022/04/26 18:32:23;;;;;;;36.90;24.10;;;;;;;11.15;100.00;100945.38;8373108;28;20502;-62
2022/04/26 18:36:24;;;;;;;32.47;21.50;;;;;;;11.22;100.00;100943.84;8371230;28;20111;-62
2022/04/26 18:40:26;;;;;;;32.60;22.33;;;;;;;11.19;100.00;100952.25;8372559;28;20041;-62
2022/04/26 18:44:26;;;;;;;36.65;23.95;;;;;;;11.17;100.00;100959.66;8373428;28;20504;-62
2022/04/26 18:48:27;;;;;;;33.10;22.13;;;;;;;11.16;100.00;100963.34;8371833;28;20450;-62
2022/04/26 18:52:27;;;;;;;34.70;23.20;;;;;;;11.18;100.00;100963.19;8378477;28;20049;-62
2022/04/26 18:56:28;;;;;;;33.90;21.48;;;;;;;11.20;100.00;100967.47;8370753;28;20379;-62
2022/04/26 19:00:29;;;;;;;31.70;21.95;;;;;;;11.19;100.00;100973.06;8363758;28;20087;-62
2022/04/26 19:04:29;;;;;;;34.80;22.65;;;;;;;11.15;100.00;100975.16;8360647;28;20041;-62
2022/04/26 19:08:30;;;;;;;34.55;23.13;;;;;;;11.19;100.00;100984.72;8363637;28;20044;-62
2022/04/26 19:12:30;;;;;;;31.58;21.88;;;;;;;11.28;100.00;100986.63;8379458;28;20043;-62
2022/04/26 19:16:31;;;;;;;34.22;23.55;;;;;;;11.24;100.00;100987.88;8380087;28;20528;-63
2022/04/26 19:20:32;;;;;;;34.65;22.90;;;;;;;11.31;100.00;100994.47;8380194;28;20119;-62
2022/04/26 19:24:32;;;;;;;33.58;23.13;;;;;;;11.26;100.00;101002.13;8382818;28;20029;-62
2022/04/26 19:28:33;;;;;;;33.55;23.20;;;;;;;11.29;100.00;101012.69;8389600;28;20059;-62
2022/04/26 19:32:34;;;;;;;32.85;22.67;;;;;;;11.26;100.00;101012.13;8389763;28;20036;-62
2022/04/26 19:36:34;;;;;;;33.97;22.23;;;;;;;11.25;100.00;101011.25;8390952;28;20040;-62
2022/04/26 19:40:34;;;;;;;32.88;22.10;;;;;;;11.26;100.00;101006.72;8394194;28;20041;-62
2022/04/26 19:44:35;;;;;;;34.30;23.85;;;;;;;11.28;100.00;101013.69;8391295;28;20044;-62
2022/04/26 19:48:36;;;;;;;33.67;22.63;;;;;;;11.17;100.00;101019.19;8388217;28;20044;-62
2022/04/26 19:52:36;;;;;;;36.40;24.98;;;;;;;11.11;100.00;101018.84;8389408;28;20119;-62
2022/04/26 19:56:37;;;;;;;39.35;25.63;;;;;;;11.05;100.00;101009.44;8386211;28;20477;-62
2022/04/26 20:00:37;;;;;;;39.25;26.15;;;;;;;11.04;100.00;101018.50;8392185;28;20528;-62
2022/04/26 20:04:38;;;;;;;38.72;26.02;;;;;;;11.00;100.00;101021.59;8373974;28;20033;-62
2022/04/26 20:08:39;;;;;;;38.60;26.60;;;;;;;10.97;100.00;101032.69;8385157;28;20029;-62
2022/04/26 20:12:39;;;;;;;40.47;26.67;;;;;;;11.06;100.00;101027.38;8392995;28;20482;-62
2022/04/26 20:16:40;;;;;;;43.42;28.00;;;;;;;11.04;100.00;101034.75;8395911;28;20108;-62
2022/04/26 20:20:41;;;;;;;49.72;30.17;;;;;;;11.01;100.00;101034.16;8417797;28;20111;-62
2022/04/26 20:24:41;;;;;;;45.70;29.67;;;;;;;10.95;100.00;101040.94;8394546;28;20501;-62
2022/04/26 20:29:46;;;;;;;51.65;30.77;;;;;;;11.00;100.00;101043.25;8392199;28;20048;-62
2022/04/26 20:33:02;;;;;;;50.78;30.45;;;;;;;11.03;100.00;101043.84;8390625;28;20041;-62
2022/04/26 20:37:03;;;;;;;44.20;28.73;;;;;;;10.96;100.00;101048.09;8390368;28;20064;-62
2022/04/26 20:41:04;;;;;;;44.42;28.92;;;;;;;10.99;100.00;101053.22;8392523;28;20478;-62
2022/04/26 20:45:04;;;;;;;47.58;29.13;;;;;;;10.96;100.00;101058.91;8389745;28;20444;-62
2022/04/26 20:49:05;;;;;;;43.03;25.85;;;;;;;11.03;100.00;101065.50;8391172;28;20060;-62
2022/04/26 20:53:05;;;;;;;41.50;24.42;;;;;;;11.16;100.00;101052.63;8419731;28;20051;-62
2022/04/26 20:57:06;;;;;;;31.58;21.17;;;;;;;11.28;100.00;101065.13;8390112;28;20060;-62
2022/04/26 21:01:07;;;;;;;30.58;17.75;;;;;;;11.35;100.00;101071.72;8375052;28;20088;-62
2022/04/26 21:05:07;;;;;;;29.15;17.33;;;;;;;11.36;100.00;101073.44;8390228;28;20043;-62
2022/04/26 21:09:08;;;;;;;21.02;15.55;;;;;;;11.43;100.00;101074.63;8391608;28;20036;-62
2022/04/26 21:13:23;;;;;;;25.63;16.55;;;;;;;11.33;100.00;101079.13;8391035;28;20047;-62
2022/04/26 21:17:23;;;;;;;28.00;17.10;;;;;;;11.22;100.00;101092.72;8389755;28;20032;-62
2022/04/26 21:21:24;;;;;;;26.98;18.35;;;;;;;11.16;100.00;101095.09;8405904;28;20501;-62
2022/04/26 21:25:24;;;;;;;34.37;19.10;;;;;;;11.11;100.00;101094.63;8399317;28;20111;-62
2022/04/26 21:29:25;;;;;;;23.98;16.27;;;;;;;10.94;100.00;101098.75;8390998;28;20269;-62
2022/04/26 21:33:26;;;;;;;20.55;11.73;;;;;;;10.96;100.00;101107.59;8389444;28;20044;-62
2022/04/26 21:37:26;;;;;;;15.95;10.95;;;;;;;10.90;99.82;101113.53;8389344;28;20040;-63
2022/04/26 21:41:27;;;;;;;16.23;9.05;;;;;;;10.78;98.02;101121.78;8389065;28;20033;-63
2022/04/26 21:45:27;;;;;;;17.08;7.72;;;;;;;10.67;95.07;101117.25;8389247;28;20028;-63
2022/04/26 21:53:48;;;;;;;11.07;7.65;;;;;;;10.46;95.94;101129.84;8407950;28;20044;-63
2022/04/26 21:57:48;;;;;;;19.02;8.55;;;;;;;10.39;95.96;101136.72;8391753;28;20102;-63
2022/04/26 22:01:49;;;;;;;13.68;9.18;;;;;;;10.32;96.80;101131.94;8391196;28;20032;-63
2022/04/26 22:05:49;;;;;;;17.63;9.32;;;;;;;10.27;97.29;101135.03;8391966;28;20035;-63
2022/04/26 22:09:49;;;;;;;18.55;10.25;;;;;;;10.26;97.07;101127.03;8392603;28;20104;-63
2022/04/26 22:13:50;;;;;;;16.27;9.70;;;;;;;10.28;94.78;101131.31;8386460;28;20053;-63
2022/04/26 22:17:51;;;;;;;23.55;9.45;;;;;;;10.31;93.62;101131.06;8390919;28;20804;-63
2022/04/26 22:21:51;;;;;;;21.27;10.43;;;;;;;10.33;93.32;101129.13;8387173;28;20047;-63
2022/04/26 22:25:51;;;;;;;17.23;9.50;;;;;;;10.28;93.66;101136.72;8388807;28;20029;-63
2022/04/26 22:29:52;;;;;;;24.42;10.63;;;;;;;10.23;94.67;101138.97;8390368;28;20293;-63